Alma, Michigan
Current Conditions -  °F | °C
As of 7:32 AM on Monday 20 Oct 2014 (Local Time) from KAMN Reporting Station
Scattered Clouds Scattered Clouds  
Wind Chill: 42°   Ceiling: Unl
Heat Index: 45°   Visibility: 7mi
Dew Point: 43°   Wind: 6mph
Humidity: 93%   Direction: 190°S
Pressure: 29.8"   Gusts: NA
Location:  43.38°N, 84.66°W
Report Text: KAMN 201132Z AUTO 19005KT 7SM SCT120 07/06 A2980 RMK AO2 T00730062
Loading
Personal Weather Stations






























Interactive Weather Map New forecast layout! Learn more

10-Day Weather Forecast

Advertisements
Track Severe Weather on mobile